createdAt,value
2022-09-24T00:02:11.643Z,8.79
2022-09-24T00:04:43.874Z,8.77
2022-09-24T00:07:15.915Z,8.75
2022-09-24T00:09:48.440Z,8.74
2022-09-24T00:12:21.922Z,8.74
2022-09-24T00:14:54.103Z,8.72
2022-09-24T00:17:26.306Z,8.69
2022-09-24T00:19:58.438Z,8.66
2022-09-24T00:22:30.471Z,8.63
2022-09-24T00:25:20.125Z,8.61
2022-09-24T00:27:52.154Z,8.60
2022-09-24T00:30:24.275Z,8.58
2022-09-24T00:32:56.276Z,8.55
2022-09-24T00:35:28.269Z,8.52
2022-09-24T00:38:00.200Z,8.49
2022-09-24T00:40:35.351Z,8.49
2022-09-24T00:43:25.306Z,8.48
2022-09-24T00:46:01.335Z,8.47
2022-09-24T00:48:34.303Z,8.44
2022-09-24T00:51:08.737Z,8.42
2022-09-24T00:53:41.521Z,8.42
2022-09-24T00:56:16.740Z,8.42
2022-09-24T00:58:52.821Z,8.39
2022-09-24T01:01:26.768Z,8.36
2022-09-24T01:04:01.500Z,8.33
2022-09-24T01:06:33.758Z,8.32
2022-09-24T01:09:06.276Z,8.29
2022-09-24T01:11:50.656Z,8.28
2022-09-24T01:14:39.999Z,8.27
2022-09-24T01:17:22.508Z,8.24
2022-09-24T01:20:12.472Z,8.21
2022-09-24T01:23:04.483Z,8.19
2022-09-24T01:25:48.739Z,8.16
2022-09-24T01:28:39.180Z,8.15
2022-09-24T01:31:17.968Z,8.13
2022-09-24T01:33:54.607Z,8.12
2022-09-24T01:36:29.528Z,8.11
2022-09-24T01:39:03.321Z,8.09
2022-09-24T01:41:36.429Z,8.08
2022-09-24T01:44:09.443Z,8.06
2022-09-24T01:46:42.570Z,8.05
2022-09-24T01:49:14.748Z,8.02
2022-09-24T01:51:52.036Z,7.99
2022-09-24T01:54:30.748Z,7.98
2022-09-24T01:57:15.198Z,7.98
2022-09-24T01:59:55.341Z,7.95
2022-09-24T02:02:31.934Z,7.94
2022-09-24T02:05:09.222Z,7.93
2022-09-24T02:07:50.775Z,7.89
2022-09-24T02:10:23.415Z,7.86
2022-09-24T02:13:03.848Z,7.84
2022-09-24T02:15:40.491Z,7.80
2022-09-24T02:18:15.755Z,7.75
2022-09-24T02:20:48.668Z,7.70
2022-09-24T02:23:25.682Z,7.66
2022-09-24T02:26:02.575Z,7.61
2022-09-24T02:28:35.799Z,7.53
2022-09-24T02:31:11.873Z,7.50
2022-09-24T02:34:04.397Z,7.48
2022-09-24T02:36:37.100Z,7.44
2022-09-24T02:39:09.354Z,7.42
2022-09-24T02:41:42.723Z,7.40
2022-09-24T02:44:16.200Z,7.36
2022-09-24T02:46:48.894Z,7.33
2022-09-24T02:49:21.226Z,7.30
2022-09-24T02:51:53.261Z,7.28
2022-09-24T02:54:26.918Z,7.25
2022-09-24T02:56:59.102Z,7.25
2022-09-24T02:59:31.167Z,7.26
2022-09-24T03:02:03.518Z,7.26
2022-09-24T03:04:36.228Z,7.26
2022-09-24T03:07:09.364Z,7.27
2022-09-24T03:09:41.335Z,7.29
2022-09-24T03:12:14.182Z,7.30
2022-09-24T03:14:46.242Z,7.31
2022-09-24T03:17:18.362Z,7.31
2022-09-24T03:19:50.538Z,7.32
2022-09-24T03:22:22.542Z,7.34
2022-09-24T03:24:54.795Z,7.37
2022-09-24T03:27:26.839Z,7.39
2022-09-24T03:30:16.515Z,7.40
2022-09-24T03:32:50.365Z,7.37
2022-09-24T03:35:22.495Z,7.34
2022-09-24T03:37:54.622Z,7.33
2022-09-24T03:40:26.687Z,7.31
2022-09-24T03:42:58.754Z,7.33
2022-09-24T03:45:30.826Z,7.36
2022-09-24T03:48:03.123Z,7.39
2022-09-24T03:50:36.820Z,7.41
2022-09-24T03:53:08.932Z,7.42
2022-09-24T03:55:45.315Z,7.45
2022-09-24T03:58:18.435Z,7.46
2022-09-24T04:00:52.211Z,7.44
2022-09-24T04:03:24.698Z,7.42
2022-09-24T04:05:56.801Z,7.40
2022-09-24T04:08:29.056Z,7.38
2022-09-24T04:11:01.474Z,7.37
2022-09-24T04:13:33.871Z,7.36
2022-09-24T04:16:06.829Z,7.34
2022-09-24T04:18:39.832Z,7.32
2022-09-24T04:21:12.437Z,7.30
2022-09-24T04:23:44.650Z,7.27
2022-09-24T04:26:17.776Z,7.25
2022-09-24T04:28:50.569Z,7.23
2022-09-24T04:31:23.688Z,7.22
2022-09-24T04:33:56.023Z,7.20
2022-09-24T04:36:28.642Z,7.18
2022-09-24T04:39:00.677Z,7.17
2022-09-24T04:41:35.160Z,7.17
2022-09-24T04:44:07.311Z,7.18
2022-09-24T04:46:41.015Z,7.23
2022-09-24T04:49:14.230Z,7.25
2022-09-24T04:51:46.233Z,7.26
2022-09-24T04:54:18.262Z,7.27
2022-09-24T04:56:50.518Z,7.29
2022-09-24T04:59:23.197Z,7.33
2022-09-24T05:01:55.695Z,7.37
2022-09-24T05:04:27.952Z,7.44
2022-09-24T05:06:59.975Z,7.51
2022-09-24T05:09:32.689Z,7.60
2022-09-24T05:12:06.319Z,7.68
2022-09-24T05:14:38.578Z,7.78
2022-09-24T05:17:10.608Z,7.92
2022-09-24T05:19:43.233Z,8.29
2022-09-24T05:22:15.301Z,8.76
2022-09-24T05:24:47.415Z,9.13
2022-09-24T05:27:20.439Z,9.78
2022-09-24T05:29:53.038Z,10.70
2022-09-24T05:32:25.697Z,11.63
2022-09-24T05:34:57.830Z,12.58
2022-09-24T05:37:29.965Z,13.45
2022-09-24T05:40:22.543Z,14.16
2022-09-24T05:43:00.399Z,14.58
2022-09-24T05:45:33.531Z,14.58
2022-09-24T05:48:05.841Z,14.60
2022-09-24T05:50:38.069Z,14.55
2022-09-24T05:53:10.650Z,14.44
2022-09-24T05:55:43.609Z,14.39
2022-09-24T05:58:16.098Z,14.57
2022-09-24T06:00:48.131Z,14.63
2022-09-24T06:03:21.541Z,14.73
2022-09-24T06:05:53.824Z,14.81
2022-09-24T06:08:25.874Z,14.80
2022-09-24T06:11:02.688Z,14.85
2022-09-24T06:13:35.667Z,14.79
2022-09-24T06:16:11.835Z,14.76
2022-09-24T06:18:45.449Z,14.85
2022-09-24T06:21:18.937Z,15.05
2022-09-24T06:23:51.406Z,15.43
2022-09-24T06:26:26.703Z,15.61
2022-09-24T06:29:04.445Z,15.68
2022-09-24T06:31:37.573Z,15.66
2022-09-24T06:34:10.282Z,15.69
2022-09-24T06:36:42.338Z,15.68
2022-09-24T06:39:14.524Z,15.74
2022-09-24T06:41:47.108Z,15.78
2022-09-24T06:44:21.090Z,15.80
2022-09-24T06:46:53.886Z,15.77
2022-09-24T06:49:30.179Z,15.73
2022-09-24T06:52:05.993Z,15.77
2022-09-24T06:54:38.832Z,15.85
2022-09-24T06:57:11.329Z,16.01
2022-09-24T06:59:43.448Z,16.30
2022-09-24T07:02:15.561Z,16.63
2022-09-24T07:04:48.045Z,16.90
2022-09-24T07:07:33.325Z,17.15
2022-09-24T07:10:08.343Z,17.39
2022-09-24T07:12:42.667Z,17.45
2022-09-24T07:15:15.341Z,17.45
2022-09-24T07:17:47.373Z,17.52
2022-09-24T07:20:19.691Z,17.76
2022-09-24T07:22:51.774Z,18.00
2022-09-24T07:25:24.185Z,18.20
2022-09-24T07:27:56.318Z,18.41
2022-09-24T07:30:28.345Z,18.67
2022-09-24T07:33:00.962Z,18.99
2022-09-24T07:35:33.575Z,19.51
2022-09-24T07:38:07.631Z,20.06
2022-09-24T07:40:39.845Z,20.39
2022-09-24T07:43:14.295Z,20.78
2022-09-24T07:45:47.580Z,21.63
2022-09-24T07:48:19.964Z,22.71
2022-09-24T07:50:52.338Z,23.97
2022-09-24T07:53:24.838Z,24.94
2022-09-24T07:56:02.071Z,25.75
2022-09-24T07:58:34.243Z,26.41
2022-09-24T08:01:06.454Z,26.96
2022-09-24T08:03:40.825Z,27.09
2022-09-24T08:06:13.439Z,27.12
2022-09-24T08:08:45.545Z,27.59
2022-09-24T08:11:18.157Z,28.03
2022-09-24T08:13:51.410Z,27.86
2022-09-24T08:16:23.548Z,27.56
2022-09-24T08:18:55.728Z,27.35
2022-09-24T08:21:29.049Z,27.44
2022-09-24T08:24:01.344Z,27.48
2022-09-24T08:26:33.531Z,27.48
2022-09-24T08:29:06.097Z,27.23
2022-09-24T08:31:38.461Z,27.23
2022-09-24T08:34:10.536Z,27.44
2022-09-24T08:36:43.547Z,27.52
2022-09-24T08:39:16.305Z,27.44
2022-09-24T08:41:58.153Z,27.18
2022-09-24T08:44:54.208Z,26.93
2022-09-24T08:47:39.041Z,26.99
2022-09-24T08:50:16.884Z,27.43
2022-09-24T08:53:14.318Z,27.77
2022-09-24T08:55:50.652Z,28.19
2022-09-24T08:58:46.271Z,28.37
2022-09-24T09:01:29.995Z,28.86
2022-09-24T09:04:11.834Z,29.10
2022-09-24T09:06:56.299Z,29.07
2022-09-24T09:09:34.196Z,29.38
2022-09-24T09:12:12.439Z,29.73
2022-09-24T09:14:51.000Z,29.97
2022-09-24T09:17:36.119Z,30.13
2022-09-24T09:20:12.740Z,30.18
2022-09-24T09:22:49.461Z,30.15
2022-09-24T09:25:28.460Z,30.31
2022-09-24T09:28:04.093Z,30.49
2022-09-24T09:30:43.763Z,30.41
2022-09-24T09:33:31.298Z,30.17
2022-09-24T09:36:11.783Z,30.25
2022-09-24T09:38:51.150Z,30.32
2022-09-24T09:41:31.242Z,30.25
2022-09-24T09:44:12.884Z,29.69
2022-09-24T09:46:53.049Z,29.56
2022-09-24T09:49:29.170Z,29.48
2022-09-24T09:52:03.525Z,29.45
2022-09-24T09:54:43.541Z,29.54
2022-09-24T09:57:19.982Z,29.58
2022-09-24T09:59:54.985Z,29.37
2022-09-24T10:02:29.508Z,28.96
2022-09-24T10:05:03.675Z,28.48
2022-09-24T10:07:47.687Z,28.08
2022-09-24T10:10:24.083Z,27.35
2022-09-24T10:12:56.183Z,26.58
2022-09-24T10:15:28.271Z,25.79
2022-09-24T10:18:03.028Z,25.23
2022-09-24T10:20:36.866Z,24.73
2022-09-24T10:23:19.532Z,24.14
2022-09-24T10:26:00.221Z,23.31
2022-09-24T10:28:52.678Z,22.56
2022-09-24T10:31:28.187Z,22.05
2022-09-24T10:34:02.562Z,21.68
2022-09-24T10:36:35.032Z,21.50
2022-09-24T10:39:14.182Z,21.53
2022-09-24T10:41:52.035Z,21.57
2022-09-24T10:44:26.040Z,21.60
2022-09-24T10:47:21.234Z,21.49
2022-09-24T10:50:17.030Z,21.20
2022-09-24T10:52:52.693Z,20.78
2022-09-24T10:55:54.228Z,20.45
2022-09-24T10:58:51.051Z,20.17
2022-09-24T11:01:33.562Z,19.76
2022-09-24T11:04:36.440Z,19.63
2022-09-24T11:07:36.048Z,19.70
2022-09-24T11:10:23.226Z,19.67
2022-09-24T11:13:02.542Z,19.69
2022-09-24T11:16:00.458Z,19.66
2022-09-24T11:18:46.148Z,19.59
2022-09-24T11:21:31.041Z,19.58
2022-09-24T11:24:25.963Z,19.71
2022-09-24T11:27:09.418Z,19.90
2022-09-24T11:29:56.064Z,20.06
2022-09-24T11:32:36.114Z,20.17
2022-09-24T11:35:26.836Z,20.26
2022-09-24T11:38:05.585Z,20.31
2022-09-24T11:41:05.076Z,20.10
2022-09-24T11:43:57.361Z,19.84
2022-09-24T11:46:47.492Z,19.65
2022-09-24T11:49:49.671Z,19.63
2022-09-24T11:52:31.179Z,19.56
2022-09-24T11:55:14.645Z,19.59
2022-09-24T11:57:51.747Z,19.79
2022-09-24T12:00:24.245Z,20.04
2022-09-24T12:03:04.229Z,20.25
2022-09-24T12:05:39.823Z,20.54
2022-09-24T12:08:18.464Z,20.77
2022-09-24T12:10:56.275Z,20.98
2022-09-24T12:13:34.834Z,21.26
2022-09-24T12:16:12.097Z,21.45
2022-09-24T12:18:52.508Z,21.47
2022-09-24T12:21:28.938Z,21.26
2022-09-24T12:24:07.447Z,21.30
2022-09-24T12:26:42.939Z,21.42
2022-09-24T12:29:51.918Z,21.45
2022-09-24T12:32:45.402Z,21.15
2022-09-24T12:35:27.797Z,20.84
2022-09-24T12:38:05.326Z,20.53
2022-09-24T12:41:24.919Z,20.29
2022-09-24T12:44:02.809Z,20.09
2022-09-24T12:46:41.081Z,19.96
2022-09-24T12:49:34.320Z,19.83
2022-09-24T12:52:20.388Z,19.87
2022-09-24T12:55:00.391Z,19.72
2022-09-24T12:57:41.595Z,19.54
2022-09-24T13:00:38.277Z,19.42
2022-09-24T13:03:24.362Z,19.32
2022-09-24T13:06:00.207Z,19.17
2022-09-24T13:08:40.835Z,19.08
2022-09-24T13:11:29.638Z,19.07
2022-09-24T13:14:07.343Z,18.91
2022-09-24T13:16:44.113Z,18.74
2022-09-24T13:19:25.394Z,18.56
2022-09-24T13:22:00.810Z,18.29
2022-09-24T13:24:37.304Z,18.05
2022-09-24T13:27:24.582Z,17.72
2022-09-24T13:30:15.775Z,17.44
2022-09-24T13:32:57.187Z,17.22
2022-09-24T13:35:33.186Z,17.03
2022-09-24T13:38:14.387Z,16.83
2022-09-24T13:40:56.839Z,16.69
2022-09-24T13:43:45.133Z,16.57
2022-09-24T13:46:20.995Z,16.49
2022-09-24T13:48:56.228Z,16.47
2022-09-24T13:51:32.500Z,16.44
2022-09-24T13:54:15.702Z,16.35
2022-09-24T13:57:03.967Z,16.28
2022-09-24T13:59:36.320Z,16.32
2022-09-24T14:02:26.192Z,16.33
2022-09-24T14:05:01.719Z,16.33
2022-09-24T14:07:34.012Z,16.30
2022-09-24T14:10:08.870Z,16.29
2022-09-24T14:12:41.241Z,16.30
2022-09-24T14:15:17.865Z,16.34
2022-09-24T14:18:00.146Z,16.44
2022-09-24T14:20:36.841Z,16.47
2022-09-24T14:23:17.075Z,16.44
2022-09-24T14:25:52.783Z,16.39
2022-09-24T14:28:26.162Z,16.40
2022-09-24T14:30:59.017Z,16.40
2022-09-24T14:33:35.167Z,16.35
2022-09-24T14:36:11.291Z,16.27
2022-09-24T14:38:53.956Z,16.20
2022-09-24T14:41:30.253Z,16.14
2022-09-24T14:44:04.976Z,16.09
2022-09-24T14:46:49.746Z,16.09
2022-09-24T14:49:24.376Z,16.10
2022-09-24T14:51:59.168Z,16.10
2022-09-24T14:54:37.275Z,16.11
2022-09-24T14:57:26.646Z,16.14
2022-09-24T14:59:58.942Z,16.15
2022-09-24T15:02:37.414Z,16.13
2022-09-24T15:05:10.997Z,16.09
2022-09-24T15:07:43.716Z,16.05
2022-09-24T15:10:24.174Z,15.99
2022-09-24T15:12:56.440Z,15.94
2022-09-24T15:15:32.240Z,15.86
2022-09-24T15:18:05.720Z,15.80
2022-09-24T15:20:38.196Z,15.73
2022-09-24T15:23:10.793Z,15.70
2022-09-24T15:25:43.768Z,15.65
2022-09-24T15:28:17.084Z,15.62
2022-09-24T15:30:49.238Z,15.59
2022-09-24T15:33:21.462Z,15.54
2022-09-24T15:35:53.639Z,15.48
2022-09-24T15:38:25.804Z,15.42
2022-09-24T15:40:59.502Z,15.35
2022-09-24T15:43:31.692Z,15.26
2022-09-24T15:46:03.820Z,15.19
2022-09-24T15:48:36.023Z,15.12
2022-09-24T15:51:15.404Z,15.04
2022-09-24T15:53:48.248Z,14.96
2022-09-24T15:56:20.471Z,14.90
2022-09-24T15:58:53.557Z,14.86
2022-09-24T16:01:25.803Z,14.82
2022-09-24T16:03:58.038Z,14.76
2022-09-24T16:06:30.188Z,14.69
2022-09-24T16:09:02.530Z,14.63
2022-09-24T16:11:34.899Z,14.57
2022-09-24T16:14:07.576Z,14.53
2022-09-24T16:16:41.011Z,14.49
2022-09-24T16:19:13.575Z,14.44
2022-09-24T16:21:45.827Z,14.41
2022-09-24T16:24:17.984Z,14.36
2022-09-24T16:26:50.141Z,14.31
2022-09-24T16:29:22.380Z,14.27
2022-09-24T16:31:54.508Z,14.21
2022-09-24T16:34:26.805Z,14.16
2022-09-24T16:36:59.179Z,14.10
2022-09-24T16:39:31.236Z,14.05
2022-09-24T16:42:03.481Z,14.03
2022-09-24T16:44:35.568Z,14.01
2022-09-24T16:47:08.039Z,13.98
2022-09-24T16:49:40.198Z,13.97
2022-09-24T16:52:12.308Z,13.95
2022-09-24T16:54:44.344Z,13.94
2022-09-24T16:57:16.948Z,13.91
2022-09-24T16:59:49.420Z,13.89
2022-09-24T17:02:22.931Z,13.87
2022-09-24T17:04:59.447Z,13.85
2022-09-24T17:07:34.268Z,13.82
2022-09-24T17:10:18.147Z,13.81
2022-09-24T17:12:51.930Z,13.79
2022-09-24T17:15:24.083Z,13.77
2022-09-24T17:17:56.207Z,13.74
2022-09-24T17:20:28.267Z,13.71
2022-09-24T17:23:00.698Z,13.69
2022-09-24T17:25:32.755Z,13.66
2022-09-24T17:28:07.339Z,13.64
2022-09-24T17:30:39.660Z,13.61
2022-09-24T17:33:41.428Z,13.59
2022-09-24T17:36:06.355Z,13.56
2022-09-24T17:38:39.398Z,13.53
2022-09-24T17:41:14.565Z,13.51
2022-09-24T17:43:48.180Z,13.48
2022-09-24T17:46:22.612Z,13.43
2022-09-24T17:48:56.581Z,13.41
2022-09-24T17:51:32.563Z,13.37
2022-09-24T17:54:08.078Z,13.34
2022-09-24T17:56:40.572Z,13.28
2022-09-24T17:59:15.034Z,13.22
2022-09-24T18:01:47.562Z,13.19
2022-09-24T18:04:21.828Z,13.15
2022-09-24T18:06:54.060Z,13.12
2022-09-24T18:09:26.239Z,13.09
2022-09-24T18:11:58.833Z,13.04
2022-09-24T18:14:31.374Z,12.99
2022-09-24T18:17:04.820Z,12.95
2022-09-24T18:19:37.141Z,12.91
2022-09-24T18:22:09.269Z,12.87
2022-09-24T18:24:42.084Z,12.84
2022-09-24T18:27:16.106Z,12.82
2022-09-24T18:29:48.261Z,12.79
2022-09-24T18:32:24.151Z,12.75
2022-09-24T18:34:56.344Z,12.72
2022-09-24T18:37:28.889Z,12.67
2022-09-24T18:40:01.699Z,12.63
2022-09-24T18:42:34.983Z,12.60
2022-09-24T18:45:08.461Z,12.56
2022-09-24T18:47:40.674Z,12.51
2022-09-24T18:50:13.194Z,12.47
2022-09-24T18:52:45.373Z,12.44
2022-09-24T18:55:17.513Z,12.40
2022-09-24T18:57:49.664Z,12.37
2022-09-24T19:00:39.289Z,12.33
2022-09-24T19:03:11.340Z,12.29
2022-09-24T19:05:43.691Z,12.25
2022-09-24T19:08:16.116Z,12.20
2022-09-24T19:10:49.063Z,12.16
2022-09-24T19:13:25.990Z,12.11
2022-09-24T19:15:58.664Z,12.05
2022-09-24T19:18:31.243Z,11.99
2022-09-24T19:21:03.936Z,11.93
2022-09-24T19:23:38.519Z,11.87
2022-09-24T19:26:12.037Z,11.82
2022-09-24T19:28:45.533Z,11.76
2022-09-24T19:31:20.284Z,11.74
2022-09-24T19:33:53.588Z,11.70
2022-09-24T19:36:25.685Z,11.66
2022-09-24T19:38:58.047Z,11.61
2022-09-24T19:41:30.423Z,11.55
2022-09-24T19:44:08.273Z,11.51
2022-09-24T19:46:41.368Z,11.46
2022-09-24T19:49:14.572Z,11.42
2022-09-24T19:51:46.973Z,11.38
2022-09-24T19:54:19.156Z,11.36
2022-09-24T19:56:51.151Z,11.33
2022-09-24T19:59:25.045Z,11.31
2022-09-24T20:01:57.155Z,11.29
2022-09-24T20:04:29.379Z,11.28
2022-09-24T20:07:05.799Z,11.26
2022-09-24T20:09:38.568Z,11.26
2022-09-24T20:12:19.832Z,11.25
2022-09-24T20:14:51.869Z,11.24
2022-09-24T20:17:23.925Z,11.22
2022-09-24T20:19:56.551Z,11.21
2022-09-24T20:22:28.712Z,11.20
2022-09-24T20:25:00.755Z,11.18
2022-09-24T20:27:51.465Z,11.16
2022-09-24T20:30:24.242Z,11.14
2022-09-24T20:32:56.743Z,11.12
2022-09-24T20:35:29.032Z,11.10
2022-09-24T20:38:01.574Z,11.10
2022-09-24T20:40:36.566Z,11.10
2022-09-24T20:43:09.592Z,11.08
2022-09-24T20:45:43.485Z,11.08
2022-09-24T20:48:15.612Z,11.08
2022-09-24T20:50:47.820Z,11.09
2022-09-24T20:53:20.454Z,11.10
2022-09-24T20:55:55.777Z,11.10
2022-09-24T20:58:27.899Z,11.10
2022-09-24T21:01:00.183Z,11.09
2022-09-24T21:03:49.946Z,11.08
2022-09-24T21:06:23.698Z,11.08
2022-09-24T21:08:56.131Z,11.07
2022-09-24T21:11:29.056Z,11.05
2022-09-24T21:14:03.102Z,11.02
2022-09-24T21:16:36.154Z,11.01
2022-09-24T21:19:08.493Z,10.99
2022-09-24T21:21:40.977Z,10.98
2022-09-24T21:24:16.474Z,10.96
2022-09-24T21:26:49.183Z,10.94
2022-09-24T21:29:22.850Z,10.92
2022-09-24T21:31:54.961Z,10.89
2022-09-24T21:34:27.984Z,10.87
2022-09-24T21:37:00.143Z,10.84
2022-09-24T21:39:32.244Z,10.82
2022-09-24T21:42:05.521Z,10.80
2022-09-24T21:44:38.094Z,10.78
2022-09-24T21:47:10.415Z,10.77
2022-09-24T21:49:42.457Z,10.74
2022-09-24T21:52:15.360Z,10.72
2022-09-24T21:54:47.426Z,10.70
2022-09-24T21:57:19.445Z,10.69
2022-09-24T22:00:01.022Z,10.67
2022-09-24T22:02:33.811Z,10.64
2022-09-24T22:05:06.562Z,10.63
2022-09-24T22:07:39.021Z,10.61
2022-09-24T22:10:12.448Z,10.60
2022-09-24T22:12:46.697Z,10.59
2022-09-24T22:15:18.904Z,10.58
2022-09-24T22:17:51.708Z,10.56
2022-09-24T22:20:23.863Z,10.54
2022-09-24T22:22:56.036Z,10.51
2022-09-24T22:25:28.421Z,10.49
2022-09-24T22:28:00.825Z,10.47
2022-09-24T22:30:33.180Z,10.46
2022-09-24T22:33:05.298Z,10.44
2022-09-24T22:35:49.943Z,10.44
2022-09-24T22:38:23.022Z,10.44
2022-09-24T22:40:55.080Z,10.43
2022-09-24T22:43:27.248Z,10.43
2022-09-24T22:46:01.439Z,10.43
2022-09-24T22:48:34.242Z,10.47
2022-09-24T22:51:07.797Z,10.50
2022-09-24T22:53:41.523Z,10.54
2022-09-24T22:56:16.890Z,10.58
2022-09-24T22:58:54.421Z,10.62
2022-09-24T23:01:28.363Z,10.64
2022-09-24T23:04:00.942Z,10.67
2022-09-24T23:06:34.747Z,10.69
2022-09-24T23:09:06.919Z,10.71
2022-09-24T23:11:39.357Z,10.71
2022-09-24T23:14:15.860Z,10.72
2022-09-24T23:16:48.346Z,10.71
2022-09-24T23:19:21.504Z,10.73
2022-09-24T23:21:54.294Z,10.72
2022-09-24T23:24:26.518Z,10.70
2022-09-24T23:26:58.492Z,10.68
2022-09-24T23:29:30.969Z,10.67
2022-09-24T23:32:03.292Z,10.65
2022-09-24T23:34:35.396Z,10.62
2022-09-24T23:37:07.442Z,10.59
2022-09-24T23:39:40.032Z,10.56
2022-09-24T23:42:12.209Z,10.54
2022-09-24T23:44:45.813Z,10.51
2022-09-24T23:47:18.666Z,10.49
2022-09-24T23:49:50.744Z,10.47
2022-09-24T23:52:22.818Z,10.45
2022-09-24T23:54:54.949Z,10.43
2022-09-24T23:57:27.208Z,10.40
2022-09-24T23:59:59.225Z,10.37
